createdAt,value
2022-09-28T00:02:13.838Z,8.20
2022-09-28T00:04:40.690Z,8.20
2022-09-28T00:07:08.387Z,8.20
2022-09-28T00:09:35.126Z,8.20
2022-09-28T00:12:02.237Z,8.20
2022-09-28T00:14:29.760Z,8.20
2022-09-28T00:16:56.525Z,8.10
2022-09-28T00:19:23.683Z,8.20
2022-09-28T00:21:50.549Z,8.10
2022-09-28T00:24:18.762Z,8.10
2022-09-28T00:26:54.212Z,8.00
2022-09-28T00:29:25.471Z,8.00
2022-09-28T00:31:53.335Z,8.00
2022-09-28T00:34:20.402Z,7.90
2022-09-28T00:36:47.877Z,8.00
2022-09-28T00:39:15.556Z,7.90
2022-09-28T00:41:42.562Z,7.90
2022-09-28T00:44:24.869Z,7.90
2022-09-28T00:47:03.863Z,7.90
2022-09-28T00:49:44.669Z,7.90
2022-09-28T00:52:28.110Z,7.80
2022-09-28T00:54:55.387Z,7.80
2022-09-28T00:57:22.814Z,7.80
2022-09-28T00:59:49.835Z,7.80
2022-09-28T01:02:16.724Z,7.70
2022-09-28T01:04:43.519Z,7.70
2022-09-28T01:07:10.686Z,7.70
2022-09-28T01:09:39.105Z,7.70
2022-09-28T01:12:05.983Z,7.70
2022-09-28T01:14:32.808Z,7.60
2022-09-28T01:17:16.448Z,7.60
2022-09-28T01:20:06.998Z,7.60
2022-09-28T01:22:37.076Z,7.60
2022-09-28T01:25:29.903Z,7.60
2022-09-28T01:28:14.378Z,7.50
2022-09-28T01:30:42.457Z,7.50
2022-09-28T01:33:14.491Z,7.50
2022-09-28T01:35:53.453Z,7.40
2022-09-28T01:38:22.666Z,7.40
2022-09-28T01:40:49.500Z,7.40
2022-09-28T01:43:29.216Z,7.30
2022-09-28T01:45:59.011Z,7.40
2022-09-28T01:48:58.267Z,7.30
2022-09-28T01:51:51.771Z,7.30
2022-09-28T01:54:23.464Z,7.30
2022-09-28T01:56:55.622Z,7.20
2022-09-28T01:59:24.834Z,7.20
2022-09-28T02:02:06.230Z,7.20
2022-09-28T02:04:36.457Z,7.20
2022-09-28T02:07:46.495Z,7.20
2022-09-28T02:10:16.025Z,7.20
2022-09-28T02:12:54.093Z,7.10
2022-09-28T02:15:30.572Z,7.10
2022-09-28T02:17:57.333Z,7.10
2022-09-28T02:20:24.063Z,7.10
2022-09-28T02:22:51.918Z,7.10
2022-09-28T02:25:49.837Z,7.10
2022-09-28T02:28:16.639Z,7.00
2022-09-28T02:30:44.069Z,7.00
2022-09-28T02:33:23.731Z,7.00
2022-09-28T02:35:50.554Z,7.00
2022-09-28T02:38:17.334Z,7.00
2022-09-28T02:40:56.106Z,7.00
2022-09-28T02:43:24.847Z,7.00
2022-09-28T02:46:02.218Z,7.00
2022-09-28T02:49:04.977Z,7.00
2022-09-28T02:52:00.792Z,7.00
2022-09-28T02:54:50.625Z,6.90
2022-09-28T02:57:39.047Z,6.90
2022-09-28T03:00:16.745Z,6.90
2022-09-28T03:03:05.206Z,6.90
2022-09-28T03:05:37.974Z,6.90
2022-09-28T03:08:09.642Z,6.80
2022-09-28T03:10:45.029Z,6.80
2022-09-28T03:13:12.456Z,6.80
2022-09-28T03:15:39.269Z,6.80
2022-09-28T03:18:06.188Z,6.80
2022-09-28T03:20:33.547Z,6.80
2022-09-28T03:23:23.309Z,6.80
2022-09-28T03:25:47.694Z,6.80
2022-09-28T03:28:14.400Z,6.70
2022-09-28T03:30:41.666Z,6.70
2022-09-28T03:33:08.406Z,6.70
2022-09-28T03:35:35.281Z,6.70
2022-09-28T03:38:02.050Z,6.70
2022-09-28T03:40:28.782Z,6.60
2022-09-28T03:42:55.547Z,6.60
2022-09-28T03:45:22.282Z,6.60
2022-09-28T03:47:49.079Z,6.60
2022-09-28T03:50:16.157Z,6.60
2022-09-28T03:52:42.931Z,6.60
2022-09-28T03:55:09.996Z,6.60
2022-09-28T03:57:37.136Z,6.60
2022-09-28T04:00:07.350Z,6.50
2022-09-28T04:02:34.865Z,6.50
2022-09-28T04:05:01.961Z,6.50
2022-09-28T04:07:31.038Z,6.50
2022-09-28T04:09:58.291Z,6.50
2022-09-28T04:12:24.991Z,6.50
2022-09-28T04:14:51.995Z,6.50
2022-09-28T04:17:18.797Z,6.50
2022-09-28T04:19:45.498Z,6.50
2022-09-28T04:22:12.293Z,6.50
2022-09-28T04:24:39.712Z,6.40
2022-09-28T04:27:24.955Z,6.40
2022-09-28T04:29:51.702Z,6.40
2022-09-28T04:32:18.486Z,6.40
2022-09-28T04:34:45.196Z,6.40
2022-09-28T04:37:11.946Z,6.40
2022-09-28T04:39:38.756Z,6.30
2022-09-28T04:42:05.678Z,6.30
2022-09-28T04:44:32.524Z,6.30
2022-09-28T04:47:02.973Z,6.20
2022-09-28T04:49:31.860Z,6.20
2022-09-28T04:51:58.589Z,6.20
2022-09-28T04:54:25.312Z,6.10
2022-09-28T04:56:53.385Z,6.10
2022-09-28T04:59:20.142Z,6.10
2022-09-28T05:01:47.586Z,6.10
2022-09-28T05:04:14.263Z,6.10
2022-09-28T05:06:41.064Z,6.10
2022-09-28T05:09:09.386Z,6.00
2022-09-28T05:11:36.165Z,6.00
2022-09-28T05:14:03.059Z,6.00
2022-09-28T05:16:31.047Z,6.00
2022-09-28T05:18:57.960Z,6.00
2022-09-28T05:21:26.377Z,6.00
2022-09-28T05:23:56.096Z,6.00
2022-09-28T05:26:23.170Z,6.00
2022-09-28T05:28:50.821Z,6.10
2022-09-28T05:31:17.667Z,6.10
2022-09-28T05:33:44.542Z,6.10
2022-09-28T05:36:11.399Z,6.10
2022-09-28T05:38:38.198Z,6.20
2022-09-28T05:41:06.730Z,6.20
2022-09-28T05:43:33.846Z,6.20
2022-09-28T05:46:00.702Z,6.20
2022-09-28T05:48:28.434Z,6.10
2022-09-28T05:50:55.346Z,6.20
2022-09-28T05:53:22.667Z,6.20
2022-09-28T05:55:52.260Z,6.20
2022-09-28T05:58:19.184Z,6.20
2022-09-28T06:00:45.994Z,6.20
2022-09-28T06:03:27.617Z,6.30
2022-09-28T06:05:54.577Z,6.30
2022-09-28T06:08:21.432Z,6.30
2022-09-28T06:10:48.173Z,6.30
2022-09-28T06:13:15.042Z,6.30
2022-09-28T06:15:42.275Z,6.30
2022-09-28T06:18:15.710Z,6.30
2022-09-28T06:20:42.831Z,6.40
2022-09-28T06:23:11.344Z,6.40
2022-09-28T06:25:38.465Z,6.30
2022-09-28T06:28:07.302Z,6.30
2022-09-28T06:30:34.973Z,6.40
2022-09-28T06:33:02.276Z,6.40
2022-09-28T06:35:30.508Z,6.40
2022-09-28T06:38:00.824Z,6.40
2022-09-28T06:40:27.794Z,6.40
2022-09-28T06:43:01.935Z,6.40
2022-09-28T06:45:29.498Z,6.40
2022-09-28T06:47:57.557Z,6.50
2022-09-28T06:50:29.185Z,6.50
2022-09-28T06:52:57.163Z,6.50
2022-09-28T06:55:24.141Z,6.60
2022-09-28T06:58:00.515Z,6.60
2022-09-28T07:00:34.054Z,6.60
2022-09-28T07:03:02.276Z,6.70
2022-09-28T07:05:29.578Z,6.70
2022-09-28T07:07:56.718Z,6.80
2022-09-28T07:10:24.568Z,6.80
2022-09-28T07:12:51.950Z,6.80
2022-09-28T07:15:19.119Z,6.90
2022-09-28T07:17:58.961Z,6.90
2022-09-28T07:20:27.651Z,7.00
2022-09-28T07:23:05.595Z,7.10
2022-09-28T07:25:44.413Z,7.20
2022-09-28T07:28:11.379Z,7.30
2022-09-28T07:30:38.449Z,7.30
2022-09-28T07:33:08.928Z,7.40
2022-09-28T07:35:35.844Z,7.50
2022-09-28T07:38:04.124Z,7.60
2022-09-28T07:40:49.993Z,7.70
2022-09-28T07:43:20.579Z,7.70
2022-09-28T07:45:52.581Z,7.80
2022-09-28T07:48:19.584Z,7.90
2022-09-28T07:50:51.853Z,8.00
2022-09-28T07:53:19.391Z,8.10
2022-09-28T07:55:53.010Z,8.20
2022-09-28T07:58:20.689Z,8.30
2022-09-28T08:00:48.823Z,8.40
2022-09-28T08:03:16.563Z,8.60
2022-09-28T08:05:43.428Z,8.70
2022-09-28T08:08:10.451Z,8.70
2022-09-28T08:10:37.864Z,8.90
2022-09-28T08:13:06.538Z,9.00
2022-09-28T08:15:36.922Z,9.20
2022-09-28T08:18:04.520Z,9.30
2022-09-28T08:20:51.632Z,9.50
2022-09-28T08:23:22.920Z,9.60
2022-09-28T08:25:50.574Z,9.70
2022-09-28T08:28:17.758Z,9.80
2022-09-28T08:30:48.104Z,9.90
2022-09-28T08:33:15.830Z,10.00
2022-09-28T08:35:42.627Z,10.20
2022-09-28T08:38:09.495Z,10.40
2022-09-28T08:41:04.693Z,10.70
2022-09-28T08:43:56.833Z,10.80
2022-09-28T08:46:27.068Z,11.20
2022-09-28T08:49:23.863Z,11.30
2022-09-28T08:51:52.634Z,11.40
2022-09-28T08:54:38.802Z,11.50
2022-09-28T08:57:14.571Z,11.60
2022-09-28T08:59:41.402Z,11.70
2022-09-28T09:02:17.859Z,11.80
2022-09-28T09:04:44.676Z,12.00
2022-09-28T09:07:37.651Z,12.10
2022-09-28T09:10:28.675Z,12.30
2022-09-28T09:13:11.746Z,12.40
2022-09-28T09:15:41.241Z,12.60
2022-09-28T09:18:47.379Z,12.70
2022-09-28T09:21:43.858Z,12.80
2022-09-28T09:24:17.245Z,12.80
2022-09-28T09:26:44.197Z,12.80
2022-09-28T09:29:29.188Z,12.80
2022-09-28T09:32:17.877Z,12.90
2022-09-28T09:35:05.547Z,13.00
2022-09-28T09:37:47.772Z,12.90
2022-09-28T09:40:33.303Z,12.90
2022-09-28T09:43:29.366Z,13.00
2022-09-28T09:46:36.556Z,13.00
2022-09-28T09:49:24.509Z,13.00
2022-09-28T09:52:15.619Z,13.20
2022-09-28T09:54:57.712Z,13.20
2022-09-28T09:57:34.620Z,13.20
2022-09-28T10:00:02.156Z,13.40
2022-09-28T10:02:30.420Z,13.50
2022-09-28T10:05:04.068Z,13.50
2022-09-28T10:07:43.468Z,13.60
2022-09-28T10:10:12.929Z,13.60
2022-09-28T10:12:39.662Z,13.60
2022-09-28T10:15:32.968Z,13.80
2022-09-28T10:18:06.714Z,13.90
2022-09-28T10:20:37.104Z,13.90
2022-09-28T10:23:04.985Z,13.90
2022-09-28T10:25:33.569Z,13.80
2022-09-28T10:28:00.401Z,13.80
2022-09-28T10:30:27.253Z,13.70
2022-09-28T10:32:59.148Z,13.70
2022-09-28T10:35:27.441Z,13.80
2022-09-28T10:38:05.796Z,13.90
2022-09-28T10:40:44.581Z,14.00
2022-09-28T10:43:30.739Z,14.20
2022-09-28T10:46:24.171Z,14.40
2022-09-28T10:48:56.408Z,14.70
2022-09-28T10:51:43.630Z,14.90
2022-09-28T10:54:20.231Z,15.20
2022-09-28T10:56:47.182Z,15.40
2022-09-28T10:59:43.379Z,15.40
2022-09-28T11:02:17.174Z,15.30
2022-09-28T11:04:44.492Z,15.10
2022-09-28T11:07:18.913Z,14.90
2022-09-28T11:09:48.697Z,14.80
2022-09-28T11:12:26.245Z,14.50
2022-09-28T11:15:02.894Z,14.40
2022-09-28T11:17:40.485Z,14.30
2022-09-28T11:20:30.475Z,14.30
2022-09-28T11:23:29.444Z,14.20
2022-09-28T11:25:58.384Z,14.40
2022-09-28T11:28:31.427Z,14.50
2022-09-28T11:30:58.202Z,14.50
2022-09-28T11:33:34.528Z,14.40
2022-09-28T11:36:13.645Z,14.40
2022-09-28T11:39:17.909Z,14.30
2022-09-28T11:42:23.536Z,14.30
2022-09-28T11:44:50.322Z,14.20
2022-09-28T11:47:29.067Z,14.20
2022-09-28T11:50:22.996Z,14.10
2022-09-28T11:53:02.887Z,14.10
2022-09-28T11:55:38.147Z,14.00
2022-09-28T11:58:25.047Z,14.00
2022-09-28T12:00:56.963Z,14.10
2022-09-28T12:03:28.940Z,14.20
2022-09-28T12:06:01.024Z,14.40
2022-09-28T12:08:35.734Z,14.60
2022-09-28T12:11:15.966Z,14.90
2022-09-28T12:13:45.296Z,15.00
2022-09-28T12:16:45.734Z,14.90
2022-09-28T12:19:18.731Z,14.80
2022-09-28T12:21:54.064Z,14.80
2022-09-28T12:24:26.021Z,14.70
2022-09-28T12:27:11.457Z,14.60
2022-09-28T12:30:02.356Z,14.50
2022-09-28T12:32:31.805Z,14.50
2022-09-28T12:34:58.664Z,14.60
2022-09-28T12:38:08.866Z,14.70
2022-09-28T12:40:56.214Z,14.90
2022-09-28T12:44:00.575Z,15.00
2022-09-28T12:46:49.483Z,14.90
2022-09-28T12:52:29.202Z,14.80
2022-09-28T12:55:17.378Z,14.90
2022-09-28T12:58:27.228Z,15.00
2022-09-28T13:01:04.119Z,15.10
2022-09-28T13:03:35.067Z,15.10
2022-09-28T13:06:16.667Z,15.10
2022-09-28T13:09:01.966Z,15.00
2022-09-28T13:11:51.392Z,14.90
2022-09-28T13:14:55.514Z,15.10
2022-09-28T13:17:45.090Z,15.80
2022-09-28T13:20:32.170Z,16.30
2022-09-28T13:23:21.431Z,16.90
2022-09-28T13:25:57.207Z,17.70
2022-09-28T13:28:27.191Z,18.20
2022-09-28T13:30:55.247Z,18.50
2022-09-28T13:33:30.666Z,18.70
2022-09-28T13:35:57.434Z,18.70
2022-09-28T13:38:25.386Z,18.50
2022-09-28T13:41:04.461Z,18.10
2022-09-28T13:44:00.303Z,17.80
2022-09-28T13:47:11.634Z,17.50
2022-09-28T13:50:07.679Z,17.10
2022-09-28T13:52:57.772Z,16.70
2022-09-28T13:55:50.610Z,16.50
2022-09-28T13:58:53.005Z,16.30
2022-09-28T14:01:23.310Z,16.20
2022-09-28T14:04:14.878Z,16.10
2022-09-28T14:06:47.516Z,16.10
2022-09-28T14:09:16.435Z,16.00
2022-09-28T14:11:53.571Z,16.00
2022-09-28T14:14:25.858Z,16.00
2022-09-28T14:17:16.743Z,15.90
2022-09-28T14:19:49.383Z,15.90
2022-09-28T14:22:36.994Z,15.90
2022-09-28T14:25:06.533Z,15.90
2022-09-28T14:28:10.873Z,15.80
2022-09-28T14:30:43.852Z,15.90
2022-09-28T14:33:39.342Z,15.90
2022-09-28T14:36:43.517Z,15.90
2022-09-28T14:39:49.828Z,15.90
2022-09-28T14:42:24.266Z,15.90
2022-09-28T14:45:06.372Z,15.90
2022-09-28T14:47:38.379Z,15.90
2022-09-28T14:50:24.139Z,15.90
2022-09-28T14:52:57.407Z,15.80
2022-09-28T14:55:27.969Z,15.70
2022-09-28T14:57:58.641Z,15.70
2022-09-28T15:00:29.388Z,15.70
2022-09-28T15:02:59.592Z,15.70
2022-09-28T15:05:49.698Z,15.60
2022-09-28T15:08:20.294Z,15.60
2022-09-28T15:10:52.187Z,15.60
2022-09-28T15:13:26.676Z,15.60
2022-09-28T15:16:13.676Z,15.50
2022-09-28T15:19:03.992Z,15.50
2022-09-28T15:21:50.716Z,15.40
2022-09-28T15:24:31.825Z,15.40
2022-09-28T15:26:59.774Z,15.30
2022-09-28T15:29:33.842Z,15.30
2022-09-28T15:32:00.689Z,15.30
2022-09-28T15:35:07.064Z,15.30
2022-09-28T15:37:39.643Z,15.20
2022-09-28T15:40:15.400Z,15.20
2022-09-28T15:42:42.390Z,15.20
2022-09-28T15:45:26.742Z,15.20
2022-09-28T15:48:17.448Z,15.10
2022-09-28T15:50:57.003Z,15.10
2022-09-28T15:53:23.917Z,15.10
2022-09-28T15:55:51.307Z,15.00
2022-09-28T15:58:19.761Z,14.90
2022-09-28T16:00:48.055Z,14.80
2022-09-28T16:03:24.968Z,14.70
2022-09-28T16:05:57.977Z,14.70
2022-09-28T16:08:37.068Z,14.70
2022-09-28T16:11:17.416Z,14.70
2022-09-28T16:13:52.902Z,14.80
2022-09-28T16:16:19.805Z,15.00
2022-09-28T16:18:49.652Z,15.20
2022-09-28T16:21:25.450Z,15.40
2022-09-28T16:23:53.211Z,15.50
2022-09-28T16:26:33.527Z,15.60
2022-09-28T16:29:01.390Z,15.70
2022-09-28T16:31:30.232Z,15.70
2022-09-28T16:34:10.846Z,15.80
2022-09-28T16:36:43.839Z,15.80
2022-09-28T16:39:16.951Z,15.70
2022-09-28T16:41:49.404Z,15.60
2022-09-28T16:44:19.779Z,15.50
2022-09-28T16:46:46.693Z,15.50
2022-09-28T16:49:18.825Z,15.50
2022-09-28T16:51:47.004Z,15.50
2022-09-28T16:54:37.498Z,15.60
2022-09-28T16:57:05.296Z,15.80
2022-09-28T16:59:32.207Z,16.00
2022-09-28T17:01:59.294Z,16.10
2022-09-28T17:04:26.322Z,16.10
2022-09-28T17:06:54.355Z,16.00
2022-09-28T17:09:21.876Z,15.80
2022-09-28T17:11:48.823Z,15.60
2022-09-28T17:14:15.635Z,15.40
2022-09-28T17:17:06.935Z,15.20
2022-09-28T17:19:31.492Z,15.00
2022-09-28T17:21:58.720Z,14.80
2022-09-28T17:24:25.523Z,14.60
2022-09-28T17:26:52.443Z,14.40
2022-09-28T17:29:19.357Z,14.20
2022-09-28T17:31:46.739Z,14.10
2022-09-28T17:34:19.495Z,13.90
2022-09-28T17:36:46.656Z,13.80
2022-09-28T17:39:14.377Z,13.60
2022-09-28T17:41:41.232Z,13.50
2022-09-28T17:44:08.158Z,13.40
2022-09-28T17:46:41.778Z,13.20
2022-09-28T17:49:10.317Z,13.20
2022-09-28T17:51:39.832Z,13.00
2022-09-28T17:54:08.098Z,12.90
2022-09-28T17:56:35.314Z,12.80
2022-09-28T17:59:04.850Z,12.70
2022-09-28T18:01:34.502Z,12.60
2022-09-28T18:04:03.080Z,12.50
2022-09-28T18:06:30.053Z,12.50
2022-09-28T18:08:56.949Z,12.30
2022-09-28T18:11:23.743Z,12.20
2022-09-28T18:13:50.523Z,12.10
2022-09-28T18:16:19.625Z,12.00
2022-09-28T18:18:47.508Z,11.90
2022-09-28T18:21:14.391Z,11.80
2022-09-28T18:23:41.155Z,11.70
2022-09-28T18:26:12.060Z,11.60
2022-09-28T18:28:39.183Z,11.50
2022-09-28T18:31:10.421Z,11.50
2022-09-28T18:33:50.299Z,11.50
2022-09-28T18:36:17.075Z,11.40
2022-09-28T18:38:43.755Z,11.30
2022-09-28T18:41:31.852Z,11.20
2022-09-28T18:44:02.609Z,11.10
2022-09-28T18:46:51.725Z,11.10
2022-09-28T18:49:18.567Z,11.00
2022-09-28T18:51:45.611Z,10.90
2022-09-28T18:54:12.371Z,10.90
2022-09-28T18:56:39.088Z,10.80
2022-09-28T18:59:11.126Z,10.80
2022-09-28T19:01:38.980Z,10.70
2022-09-28T19:04:07.706Z,10.60
2022-09-28T19:06:34.746Z,10.60
2022-09-28T19:09:01.638Z,10.60
2022-09-28T19:11:28.798Z,10.50
2022-09-28T19:13:55.683Z,10.40
2022-09-28T19:16:24.649Z,10.40
2022-09-28T19:18:53.455Z,10.30
2022-09-28T19:21:20.386Z,10.30
2022-09-28T19:23:49.784Z,10.20
2022-09-28T19:26:21.610Z,10.20
2022-09-28T19:28:49.039Z,10.20
2022-09-28T19:31:16.013Z,10.10
2022-09-28T19:33:43.825Z,10.10
2022-09-28T19:36:15.369Z,10.10
2022-09-28T19:38:42.523Z,10.10
2022-09-28T19:41:39.400Z,10.00
2022-09-28T19:44:15.651Z,10.00
2022-09-28T19:46:42.985Z,10.00
2022-09-28T19:49:14.865Z,10.00
2022-09-28T19:51:56.559Z,9.90
2022-09-28T19:54:36.281Z,9.90
2022-09-28T19:57:08.034Z,9.90
2022-09-28T19:59:36.620Z,9.80
2022-09-28T20:02:04.602Z,9.80
2022-09-28T20:04:31.498Z,9.70
2022-09-28T20:07:01.633Z,9.70
2022-09-28T20:09:28.703Z,9.70
2022-09-28T20:11:55.540Z,9.60
2022-09-28T20:14:24.567Z,9.40
2022-09-28T20:16:53.356Z,9.60
2022-09-28T20:19:21.845Z,9.60
2022-09-28T20:21:49.136Z,9.50
2022-09-28T20:24:18.951Z,9.50
2022-09-28T20:26:46.176Z,9.40
2022-09-28T20:29:16.214Z,9.40
2022-09-28T20:31:43.182Z,9.40
2022-09-28T20:34:10.605Z,9.30
2022-09-28T20:36:37.646Z,9.30
2022-09-28T20:39:04.391Z,9.20
2022-09-28T20:41:36.740Z,9.20
2022-09-28T20:44:05.932Z,9.10
2022-09-28T20:46:36.902Z,9.10
2022-09-28T20:49:04.703Z,9.00
2022-09-28T20:51:31.560Z,9.00
2022-09-28T20:53:58.973Z,8.90
2022-09-28T20:56:27.341Z,8.90
2022-09-28T20:58:54.610Z,8.90
2022-09-28T21:01:29.451Z,8.80
2022-09-28T21:04:00.517Z,8.80
2022-09-28T21:06:28.781Z,8.80
2022-09-28T21:08:55.620Z,8.80
2022-09-28T21:11:23.502Z,8.70
2022-09-28T21:14:01.263Z,8.70
2022-09-28T21:16:29.445Z,8.70
2022-09-28T21:18:56.488Z,8.70
2022-09-28T21:21:23.747Z,8.70
2022-09-28T21:23:56.925Z,8.60
2022-09-28T21:26:25.459Z,8.60
2022-09-28T21:28:53.920Z,8.60
2022-09-28T21:31:24.771Z,8.50
2022-09-28T21:33:54.494Z,8.50
2022-09-28T21:36:21.302Z,8.50
2022-09-28T21:38:48.292Z,8.50
2022-09-28T21:41:15.391Z,8.50
2022-09-28T21:43:42.133Z,8.40
2022-09-28T21:46:10.075Z,8.40
2022-09-28T21:48:37.148Z,8.40
2022-09-28T21:51:09.083Z,8.30
2022-09-28T21:53:37.516Z,8.30
2022-09-28T21:56:05.764Z,8.30
2022-09-28T21:58:33.977Z,8.30
2022-09-28T22:01:01.883Z,8.30
2022-09-28T22:03:29.588Z,8.30
2022-09-28T22:05:56.312Z,8.20
2022-09-28T22:08:23.739Z,8.20
2022-09-28T22:11:10.589Z,8.20
2022-09-28T22:13:40.642Z,8.20
2022-09-28T22:16:08.254Z,8.20
2022-09-28T22:18:35.122Z,8.20
2022-09-28T22:21:20.796Z,8.20
2022-09-28T22:23:47.893Z,8.20
2022-09-28T22:26:20.136Z,8.10
2022-09-28T22:28:54.543Z,8.20
2022-09-28T22:31:32.177Z,8.10
2022-09-28T22:34:02.088Z,8.10
2022-09-28T22:36:32.156Z,8.10
2022-09-28T22:38:59.588Z,8.10
2022-09-28T22:41:26.479Z,8.10
2022-09-28T22:43:53.689Z,8.10
2022-09-28T22:46:28.054Z,8.10
2022-09-28T22:48:58.585Z,8.10
2022-09-28T22:51:28.208Z,8.10
2022-09-28T22:53:56.566Z,8.10
2022-09-28T22:56:23.442Z,8.00
2022-09-28T22:58:50.250Z,8.10
2022-09-28T23:01:19.337Z,8.00
2022-09-28T23:03:46.560Z,8.00
2022-09-28T23:06:16.043Z,8.00
2022-09-28T23:08:43.157Z,8.00
2022-09-28T23:11:09.939Z,8.00
2022-09-28T23:13:37.637Z,8.00
2022-09-28T23:16:05.972Z,8.00
2022-09-28T23:18:34.149Z,8.00
2022-09-28T23:21:09.932Z,8.00
2022-09-28T23:23:36.685Z,7.90
2022-09-28T23:26:16.412Z,7.90
2022-09-28T23:28:43.344Z,7.90
2022-09-28T23:31:18.255Z,7.90
2022-09-28T23:33:45.354Z,7.90
2022-09-28T23:36:12.155Z,7.80
2022-09-28T23:38:39.044Z,7.80
2022-09-28T23:41:05.949Z,7.70
2022-09-28T23:43:32.881Z,7.70
2022-09-28T23:45:59.742Z,7.70
2022-09-28T23:48:26.585Z,7.70
2022-09-28T23:50:53.437Z,7.60
2022-09-28T23:53:20.170Z,7.60
2022-09-28T23:55:46.944Z,7.60
2022-09-28T23:58:13.788Z,7.50
